CheckWX is a tool to help pilots better visualize weather data.  It is not intended as a substitute for an official pre-flight weather briefing.

05:27:43 UTC

KHIB METAR
Range Regional Airport
Hibbing, Minnesota, USA
Current

35 mins ago

KHIB 240453Z AUTO 34011KT 6SM BR OVC007 M03/M04 A2958 RMK AO2 SLP036 T10281039
Observed
Feb-24 @ 04:53 UTC
Wind
  • 340° at 11 KTS
Visibility
6 SM
Flight Rules
IFR
Conditions
Mist
Cloud Levels
  • Overcast at 700' AGL
Temperature
-3°C / 27°F
Dewpoint
-4°C / 25°F
Humidity
93%
Altimeter
29.58" Hg
Pressure
1003.6 hPa
Previous

1 hour ago

KHIB 240425Z AUTO 35006KT 6SM BR BKN007 OVC011 M03/M04 A2961 RMK AO2 CIG 006V010 T10281044
Observed
Feb-24 @ 04:25 UTC
Wind
  • 350° at 6 KTS
Visibility
6 SM
Flight Rules
IFR
Conditions
Mist
Cloud Levels
  • Broken at 700' AGL
  • Overcast at 1,100' AGL
Temperature
-3°C / 27°F
Dewpoint
-4°C / 25°F
Humidity
93%
Altimeter
29.61" Hg
Pressure
1002.72 hPa
Previous

2 hours ago

KHIB 240353Z AUTO 35005KT 6SM BR OVC013 M03/M04 A2964 RMK AO2 SLP057 T10281044
Observed
Feb-24 @ 03:53 UTC
Wind
  • 350° at 5 KTS
Visibility
6 SM
Flight Rules
MVFR
Conditions
Mist
Cloud Levels
  • Overcast at 1,300' AGL
Temperature
-3°C / 27°F
Dewpoint
-4°C / 25°F
Humidity
93%
Altimeter
29.64" Hg
Pressure
1005.7 hPa